createdAt,value
2022-09-06T00:14:24.197Z,1.40
2022-09-06T00:16:55.481Z,1.50
2022-09-06T00:19:23.152Z,1.88
2022-09-06T00:21:50.911Z,1.80
2022-09-06T00:24:19.384Z,1.45
2022-09-06T00:26:47.011Z,1.48
2022-09-06T00:29:18.567Z,1.52
2022-09-06T00:31:46.658Z,1.67
2022-09-06T00:34:19.507Z,1.42
2022-09-06T00:36:47.036Z,1.65
2022-09-06T00:39:16.397Z,1.45
2022-09-06T00:41:46.035Z,2.03
2022-09-06T00:44:17.482Z,1.55
2022-09-06T00:46:50.256Z,1.90
2022-09-06T00:49:33.877Z,1.70
2022-09-06T00:52:13.007Z,1.73
2022-09-06T00:54:41.722Z,2.10
2022-09-06T00:57:14.978Z,2.03
2022-09-06T01:00:05.237Z,1.70
2022-09-06T01:02:36.670Z,2.60
2022-09-06T01:05:06.508Z,4.00
2022-09-06T01:08:13.570Z,3.45
2022-09-06T01:11:14.861Z,4.10
2022-09-06T01:14:13.978Z,5.30
2022-09-06T01:16:56.092Z,5.75
2022-09-06T01:20:17.288Z,5.45
2022-09-06T01:23:18.826Z,5.63
2022-09-06T01:26:12.533Z,6.20
2022-09-06T01:28:49.628Z,5.88
2022-09-06T01:31:18.888Z,5.07
2022-09-06T01:34:07.880Z,6.47
2022-09-06T01:37:06.272Z,6.00
2022-09-06T01:39:35.813Z,6.00
2022-09-06T01:42:11.125Z,5.82
2022-09-06T01:44:43.977Z,6.47
2022-09-06T01:47:39.725Z,6.32
2022-09-06T01:50:32.934Z,5.65
2022-09-06T01:53:13.501Z,6.15
2022-09-06T01:58:32.617Z,5.82
2022-09-06T02:01:09.184Z,6.10
2022-09-06T02:04:06.158Z,5.47
2022-09-06T02:06:42.195Z,5.05
2022-09-06T02:09:15.648Z,6.40
2022-09-06T02:12:00.011Z,6.53
2022-09-06T02:14:40.814Z,6.22
2022-09-06T02:17:27.413Z,6.88
2022-09-06T02:20:04.199Z,6.05
2022-09-06T02:22:36.917Z,6.10
2022-09-06T02:25:07.849Z,5.93
2022-09-06T02:27:35.678Z,5.57
2022-09-06T02:30:10.258Z,5.25
2022-09-06T02:33:07.331Z,4.78
2022-09-06T02:35:49.481Z,4.70
2022-09-06T02:38:26.816Z,4.70
2022-09-06T02:40:57.467Z,4.60
2022-09-06T02:43:25.146Z,4.30
2022-09-06T02:45:53.168Z,4.50
2022-09-06T02:48:23.906Z,4.90
2022-09-06T02:50:52.207Z,4.75
2022-09-06T02:53:27.646Z,4.63
2022-09-06T02:55:55.237Z,5.30
2022-09-06T02:58:23.330Z,5.45
2022-09-06T03:00:52.421Z,5.30
2022-09-06T03:03:21.359Z,5.43
2022-09-06T03:05:50.201Z,5.47
2022-09-06T03:08:19.645Z,5.78
2022-09-06T03:10:54.476Z,5.15
2022-09-06T03:13:33.265Z,5.22
2022-09-06T03:16:05.650Z,5.90
2022-09-06T03:18:34.470Z,5.85
2022-09-06T03:21:02.720Z,5.80
2022-09-06T03:23:32.279Z,7.47
2022-09-06T03:25:59.731Z,7.47
2022-09-06T03:28:28.255Z,6.70
2022-09-06T03:30:56.918Z,7.20
2022-09-06T03:33:24.811Z,7.80
2022-09-06T03:35:55.589Z,8.05
2022-09-06T03:38:24.756Z,7.93
2022-09-06T03:40:53.474Z,8.13
2022-09-06T03:43:23.275Z,8.45
2022-09-06T03:45:57.684Z,8.63
2022-09-06T03:48:28.921Z,7.90
2022-09-06T03:51:01.117Z,7.97
2022-09-06T03:53:32.460Z,8.27
2022-09-06T03:56:03.788Z,7.72
2022-09-06T03:58:33.677Z,8.02
2022-09-06T04:01:08.931Z,7.63
2022-09-06T04:03:37.507Z,7.13
2022-09-06T04:06:09.680Z,8.63
2022-09-06T04:08:38.606Z,7.75
2022-09-06T04:11:06.966Z,7.55
2022-09-06T04:13:36.416Z,7.85
2022-09-06T04:16:06.478Z,6.82
2022-09-06T04:18:34.163Z,6.75
2022-09-06T04:21:05.889Z,7.10
2022-09-06T04:23:39.671Z,7.47
2022-09-06T04:26:08.073Z,7.90
2022-09-06T04:28:36.040Z,7.68
2022-09-06T04:31:05.378Z,8.20
2022-09-06T04:33:36.314Z,8.55
2022-09-06T04:36:10.311Z,7.72
2022-09-06T04:38:40.712Z,7.60
2022-09-06T04:41:10.262Z,8.40
2022-09-06T04:43:38.116Z,7.65
2022-09-06T04:46:25.569Z,7.45
2022-09-06T04:48:57.849Z,7.97
2022-09-06T04:51:26.115Z,8.07
2022-09-06T04:53:54.506Z,8.02
2022-09-06T04:56:24.928Z,8.38
2022-09-06T04:59:22.072Z,8.30
2022-09-06T05:01:50.759Z,7.70
2022-09-06T05:04:19.243Z,8.23
2022-09-06T05:06:47.928Z,7.25
2022-09-06T05:09:15.666Z,7.47
2022-09-06T05:11:43.538Z,8.63
2022-09-06T05:14:11.207Z,8.50
2022-09-06T05:16:38.908Z,8.00
2022-09-06T05:19:08.179Z,8.30
2022-09-06T05:21:36.175Z,7.45
2022-09-06T05:24:04.368Z,7.97
2022-09-06T05:26:32.728Z,7.65
2022-09-06T05:29:07.230Z,7.97
2022-09-06T05:31:39.699Z,8.35
2022-09-06T05:34:09.176Z,7.78
2022-09-06T05:36:38.878Z,8.30
2022-09-06T05:39:09.473Z,9.30
2022-09-06T05:41:38.023Z,8.73
2022-09-06T05:44:11.113Z,8.35
2022-09-06T05:46:47.788Z,9.27
2022-09-06T05:49:19.292Z,9.48
2022-09-06T05:52:09.412Z,9.55
2022-09-06T05:54:37.079Z,10.30
2022-09-06T05:57:06.737Z,10.05
2022-09-06T05:59:36.514Z,10.70
2022-09-06T06:02:07.660Z,9.55
2022-09-06T06:04:35.206Z,10.57
2022-09-06T06:07:03.941Z,9.15
2022-09-06T06:09:33.359Z,10.52
2022-09-06T06:12:01.324Z,10.73
2022-09-06T06:14:31.367Z,11.13
2022-09-06T06:16:59.070Z,11.95
2022-09-06T06:19:50.058Z,11.32
2022-09-06T06:22:19.864Z,9.82
2022-09-06T06:24:47.543Z,11.27
2022-09-06T06:27:15.418Z,11.52
2022-09-06T06:29:43.166Z,11.95
2022-09-06T06:32:12.222Z,10.35
2022-09-06T06:34:39.801Z,12.65
2022-09-06T06:37:09.602Z,12.73
2022-09-06T06:39:38.974Z,12.75
2022-09-06T06:42:07.604Z,13.65
2022-09-06T06:44:50.898Z,14.10
2022-09-06T06:47:24.601Z,13.23
2022-09-06T06:49:53.496Z,14.07
2022-09-06T06:52:24.694Z,15.73
2022-09-06T06:54:57.847Z,14.25
2022-09-06T07:00:28.721Z,13.63
2022-09-06T07:02:56.744Z,14.25
2022-09-06T07:08:13.925Z,13.68
2022-09-06T07:10:43.668Z,13.07
2022-09-06T07:13:16.578Z,11.57
2022-09-06T07:15:44.427Z,12.93
2022-09-06T07:18:13.486Z,13.57
2022-09-06T07:26:26.720Z,13.43
2022-09-06T07:29:10.900Z,13.75
2022-09-06T07:34:34.044Z,13.75
2022-09-06T07:37:02.984Z,12.73
2022-09-06T07:39:32.906Z,12.45
2022-09-06T07:42:03.594Z,12.85
2022-09-06T07:44:32.295Z,12.68
2022-09-06T07:55:34.458Z,11.90
2022-09-06T07:58:06.172Z,11.13
2022-09-06T08:00:35.066Z,10.35
2022-09-06T08:03:04.845Z,9.95
2022-09-06T08:11:14.744Z,9.20
2022-09-06T08:13:43.810Z,8.88
2022-09-06T08:19:37.453Z,8.48
2022-09-06T08:22:05.081Z,9.57
2022-09-06T08:24:35.984Z,8.15
2022-09-06T08:27:08.470Z,8.77
2022-09-06T08:29:36.079Z,8.88
2022-09-06T08:32:04.866Z,9.07
2022-09-06T08:34:33.554Z,8.27
2022-09-06T08:37:03.727Z,8.43
2022-09-06T08:39:31.704Z,8.35
2022-09-06T08:42:06.241Z,7.70
2022-09-06T08:44:56.449Z,7.82
2022-09-06T08:47:29.427Z,7.78
2022-09-06T08:49:56.942Z,8.15
2022-09-06T08:52:54.362Z,8.52
2022-09-06T08:55:44.816Z,6.53
2022-09-06T08:58:51.285Z,6.50
2022-09-06T09:01:34.752Z,5.90
2022-09-06T09:04:16.084Z,5.20
2022-09-06T09:06:50.542Z,3.70
2022-09-06T09:09:20.496Z,4.18
2022-09-06T09:11:59.103Z,4.07
2022-09-06T09:14:36.674Z,3.80
2022-09-06T09:17:26.224Z,3.22
2022-09-06T09:19:54.735Z,4.95
2022-09-06T09:22:25.672Z,3.50
2022-09-06T09:24:55.244Z,3.75
2022-09-06T09:27:27.892Z,3.22
2022-09-06T09:32:46.868Z,2.78
2022-09-06T09:35:37.023Z,3.17
2022-09-06T09:38:57.158Z,2.75
2022-09-06T09:41:38.611Z,2.20
2022-09-06T09:44:33.579Z,2.80
2022-09-06T09:47:01.249Z,2.53
2022-09-06T09:49:30.105Z,2.60
2022-09-06T09:52:07.581Z,3.35
2022-09-06T09:54:43.414Z,2.97
2022-09-06T09:57:21.668Z,3.42
2022-09-06T10:00:03.065Z,3.33
2022-09-06T10:02:36.560Z,2.78
2022-09-06T10:05:09.984Z,2.67
2022-09-06T10:07:46.472Z,2.92
2022-09-06T10:10:21.379Z,3.15
2022-09-06T10:12:50.483Z,2.60
2022-09-06T10:15:36.380Z,2.60
2022-09-06T10:18:05.067Z,2.50
2022-09-06T10:20:44.263Z,2.50
2022-09-06T10:26:32.907Z,2.35
2022-09-06T10:29:07.839Z,1.80
2022-09-06T10:31:45.692Z,1.60
2022-09-06T10:34:41.017Z,1.40
2022-09-06T10:37:23.829Z,1.15
2022-09-06T10:40:07.555Z,1.50
2022-09-06T10:42:48.979Z,1.42
2022-09-06T10:45:34.567Z,1.65
2022-09-06T10:48:38.936Z,1.95
2022-09-06T10:51:55.113Z,1.45
2022-09-06T10:54:24.645Z,1.70
2022-09-06T11:00:14.734Z,1.63
2022-09-06T11:06:13.970Z,1.75
2022-09-06T11:08:50.367Z,3.45
2022-09-06T11:11:50.292Z,2.30
2022-09-06T11:14:21.877Z,2.80
2022-09-06T11:17:05.213Z,2.50
2022-09-06T11:19:46.611Z,2.20
2022-09-06T11:22:44.347Z,1.80
2022-09-06T11:25:12.004Z,2.08
2022-09-06T11:27:45.822Z,1.67
2022-09-06T11:30:19.059Z,1.50
2022-09-06T11:32:51.500Z,1.63
2022-09-06T11:35:32.414Z,1.30
2022-09-06T11:38:16.225Z,1.65
2022-09-06T11:41:03.460Z,1.58
2022-09-06T11:43:56.283Z,1.45
2022-09-06T11:46:34.847Z,1.70
2022-09-06T11:49:41.962Z,1.67
2022-09-06T11:52:46.659Z,2.05
2022-09-06T11:55:40.598Z,1.80
2022-09-06T11:58:47.095Z,1.63
2022-09-06T12:01:18.920Z,2.15
2022-09-06T12:04:06.701Z,1.90
2022-09-06T12:06:51.563Z,1.83
2022-09-06T12:09:28.914Z,2.30
2022-09-06T12:11:58.870Z,2.28
2022-09-06T12:14:47.508Z,1.77
2022-09-06T12:17:16.921Z,1.92
2022-09-06T12:20:17.243Z,1.70
2022-09-06T12:22:48.451Z,2.40
2022-09-06T12:25:34.588Z,2.00
2022-09-06T12:28:07.488Z,1.80
2022-09-06T12:30:42.484Z,1.45
2022-09-06T12:33:32.568Z,1.60
2022-09-06T12:36:20.605Z,2.17
2022-09-06T12:39:24.233Z,2.75
2022-09-06T12:41:58.227Z,2.60
2022-09-06T12:44:49.874Z,2.53
2022-09-06T12:47:26.118Z,2.40
2022-09-06T12:50:17.944Z,3.17
2022-09-06T12:53:21.564Z,2.42
2022-09-06T12:56:20.027Z,2.40
2022-09-06T12:58:48.391Z,2.20
2022-09-06T13:01:26.565Z,1.92
2022-09-06T13:04:28.775Z,3.08
2022-09-06T13:06:59.517Z,2.80
2022-09-06T13:09:31.719Z,2.72
2022-09-06T13:12:09.951Z,2.55
2022-09-06T13:14:38.264Z,2.05
2022-09-06T13:17:08.534Z,2.00
2022-09-06T13:19:40.970Z,2.42
2022-09-06T13:22:11.984Z,2.30
2022-09-06T13:24:47.807Z,2.17
2022-09-06T13:27:51.466Z,2.50
2022-09-06T13:30:41.151Z,2.22
2022-09-06T13:33:28.786Z,1.55
2022-09-06T13:36:05.870Z,1.75
2022-09-06T13:38:46.326Z,1.40
2022-09-06T13:41:29.263Z,1.50
2022-09-06T13:44:00.720Z,1.63
2022-09-06T13:46:30.027Z,2.55
2022-09-06T13:49:01.831Z,1.88
2022-09-06T13:51:39.859Z,1.63
2022-09-06T13:54:10.876Z,1.70
2022-09-06T13:56:43.890Z,1.73
2022-09-06T13:59:18.310Z,1.40
2022-09-06T14:01:54.116Z,1.33
2022-09-06T14:04:21.711Z,1.38
2022-09-06T14:06:49.519Z,1.45
2022-09-06T14:09:24.557Z,2.00
2022-09-06T14:11:55.804Z,1.65
2022-09-06T14:14:25.232Z,1.55
2022-09-06T14:16:54.475Z,1.60
2022-09-06T14:19:22.115Z,1.50
2022-09-06T14:21:50.013Z,1.48
2022-09-06T14:24:20.533Z,1.50
2022-09-06T14:26:49.578Z,1.35
2022-09-06T14:29:17.271Z,1.35
2022-09-06T14:31:45.477Z,1.20
2022-09-06T14:34:15.550Z,1.17
2022-09-06T14:39:10.586Z,1.33
2022-09-06T14:41:38.167Z,1.13
2022-09-06T14:44:10.026Z,1.58
2022-09-06T14:46:39.238Z,1.48
2022-09-06T14:49:10.392Z,1.10
2022-09-06T14:51:44.627Z,1.23
2022-09-06T14:54:14.620Z,1.00
2022-09-06T14:56:45.725Z,1.23
2022-09-06T14:59:16.797Z,1.30
2022-09-06T15:01:45.249Z,1.45
2022-09-06T15:04:13.772Z,1.80
2022-09-06T15:06:54.840Z,2.08
2022-09-06T15:09:23.533Z,1.70
2022-09-06T15:11:52.480Z,1.67
2022-09-06T15:14:25.256Z,1.60
2022-09-06T15:17:03.467Z,1.70
2022-09-06T15:19:39.501Z,1.63
2022-09-06T15:22:08.194Z,1.77
2022-09-06T15:24:39.471Z,1.77
2022-09-06T15:27:07.652Z,1.73
2022-09-06T15:29:36.187Z,1.80
2022-09-06T15:32:07.601Z,1.67
2022-09-06T15:34:37.243Z,1.88
2022-09-06T15:37:05.874Z,2.00
2022-09-06T15:39:33.912Z,2.00
2022-09-06T15:42:05.567Z,1.60
2022-09-06T15:44:34.601Z,1.55
2022-09-06T15:47:05.487Z,1.67
2022-09-06T15:49:35.570Z,1.90
2022-09-06T15:57:32.339Z,1.40
2022-09-06T16:00:05.810Z,1.48
2022-09-06T16:02:46.316Z,1.50
2022-09-06T16:05:15.205Z,1.45
2022-09-06T16:07:44.912Z,1.80
2022-09-06T16:10:13.227Z,1.80
2022-09-06T16:12:41.824Z,1.50
2022-09-06T16:15:10.590Z,1.50
2022-09-06T16:17:42.152Z,1.50
2022-09-06T16:20:14.548Z,1.80
2022-09-06T16:22:42.858Z,2.17
2022-09-06T16:25:11.080Z,1.60
2022-09-06T16:27:42.750Z,1.45
2022-09-06T16:30:15.040Z,1.85
2022-09-06T16:32:42.523Z,2.35
2022-09-06T16:35:10.766Z,1.80
2022-09-06T16:37:40.987Z,1.70
2022-09-06T16:42:38.220Z,1.50
2022-09-06T16:45:07.117Z,1.83
2022-09-06T16:47:34.781Z,1.55
2022-09-06T16:50:07.578Z,1.20
2022-09-06T16:52:36.173Z,1.52
2022-09-06T16:55:05.505Z,1.92
2022-09-06T16:57:35.281Z,1.80
2022-09-06T17:00:03.425Z,1.40
2022-09-06T17:02:32.540Z,1.63
2022-09-06T17:05:04.425Z,1.45
2022-09-06T17:07:36.413Z,1.55
2022-09-06T17:10:07.161Z,2.00
2022-09-06T17:12:36.876Z,1.70
2022-09-06T17:15:05.501Z,1.85
2022-09-06T17:17:35.474Z,1.60
2022-09-06T17:20:04.987Z,2.20
2022-09-06T17:22:34.136Z,1.67
2022-09-06T17:25:02.553Z,1.58
2022-09-06T17:27:31.038Z,1.70
2022-09-06T17:29:59.975Z,1.70
2022-09-06T17:32:32.781Z,1.52
2022-09-06T17:35:01.471Z,2.17
2022-09-06T17:37:29.456Z,1.77
2022-09-06T17:39:57.813Z,2.00
2022-09-06T17:42:25.834Z,2.28
2022-09-06T17:44:57.092Z,2.38
2022-09-06T17:47:25.101Z,2.42
2022-09-06T17:49:53.755Z,2.00
2022-09-06T17:52:21.765Z,2.33
2022-09-06T17:54:49.653Z,3.95
2022-09-06T17:57:17.899Z,4.70
2022-09-06T17:59:46.682Z,7.82
2022-09-06T18:02:15.071Z,3.10
2022-09-06T18:04:42.968Z,4.75
2022-09-06T18:07:12.079Z,10.57
2022-09-06T18:09:41.909Z,4.28
2022-09-06T18:12:09.678Z,3.40
2022-09-06T18:14:42.724Z,2.85
2022-09-06T18:17:16.573Z,2.50
2022-09-06T18:19:47.625Z,2.10
2022-09-06T18:25:35.433Z,2.20
2022-09-06T18:28:04.185Z,2.25
2022-09-06T18:30:33.089Z,2.00
2022-09-06T18:33:06.937Z,1.98
2022-09-06T18:35:40.683Z,2.10
2022-09-06T18:38:13.581Z,2.00
2022-09-06T18:40:49.876Z,2.30
2022-09-06T18:43:18.578Z,2.20
2022-09-06T18:45:57.542Z,2.30
2022-09-06T18:48:26.817Z,2.30
2022-09-06T18:50:59.235Z,2.20
2022-09-06T18:53:35.628Z,2.08
2022-09-06T18:56:04.729Z,1.95
2022-09-06T18:58:34.093Z,1.98
2022-09-06T19:01:15.458Z,2.33
2022-09-06T19:03:44.164Z,2.33
2022-09-06T19:06:23.718Z,2.20
2022-09-06T19:08:54.903Z,2.33
2022-09-06T19:11:25.123Z,2.55
2022-09-06T19:14:03.847Z,2.10
2022-09-06T19:16:34.824Z,1.92
2022-09-06T19:19:10.402Z,1.95
2022-09-06T19:21:49.380Z,2.80
2022-09-06T19:24:23.030Z,2.22
2022-09-06T19:27:36.081Z,2.10
2022-09-06T19:30:43.674Z,2.60
2022-09-06T19:34:13.277Z,2.20
2022-09-06T19:36:54.769Z,2.40
2022-09-06T19:40:12.458Z,2.60
2022-09-06T19:42:42.484Z,2.53
2022-09-06T19:45:11.431Z,2.70
2022-09-06T19:48:12.470Z,2.45
2022-09-06T20:00:40.657Z,2.45
2022-09-06T20:03:24.580Z,2.45
2022-09-06T20:06:25.061Z,2.30
2022-09-06T20:09:28.905Z,2.45
2022-09-06T20:12:32.864Z,2.50
2022-09-06T20:15:12.395Z,2.25
2022-09-06T20:17:49.422Z,2.70
2022-09-06T20:20:25.578Z,2.58
2022-09-06T20:22:59.997Z,2.58
2022-09-06T20:25:49.288Z,2.50
2022-09-06T20:28:25.219Z,2.40
2022-09-06T20:30:57.695Z,2.70
2022-09-06T20:34:03.672Z,3.30
2022-09-06T20:36:38.204Z,2.58
2022-09-06T20:39:12.440Z,2.70
2022-09-06T20:41:46.573Z,2.80
2022-09-06T20:44:21.113Z,2.95
2022-09-06T20:46:52.931Z,2.88
2022-09-06T20:49:25.283Z,3.00
2022-09-06T20:51:56.603Z,2.40
2022-09-06T20:54:30.168Z,2.60
2022-09-06T20:57:12.251Z,2.50
2022-09-06T20:59:48.535Z,3.15
2022-09-06T21:05:06.998Z,2.72
2022-09-06T21:07:37.769Z,3.80
2022-09-06T21:10:12.918Z,3.80
2022-09-06T21:12:48.596Z,4.47
2022-09-06T21:15:18.494Z,4.53
2022-09-06T21:18:07.184Z,4.50
2022-09-06T21:20:43.290Z,3.80
2022-09-06T21:23:18.255Z,4.80
2022-09-06T21:26:02.719Z,4.60
2022-09-06T21:28:49.487Z,5.43
2022-09-06T21:31:30.418Z,5.93
2022-09-06T21:34:13.876Z,5.05
2022-09-06T21:37:08.792Z,5.95
2022-09-06T21:39:41.495Z,6.75
2022-09-06T21:42:15.548Z,6.35
2022-09-06T21:45:01.274Z,8.18
2022-09-06T21:47:35.134Z,6.97
2022-09-06T21:50:20.336Z,7.95
2022-09-06T21:52:53.846Z,7.60
2022-09-06T21:55:32.427Z,8.20
2022-09-06T21:58:08.656Z,9.00
2022-09-06T22:00:37.697Z,7.70
2022-09-06T22:03:09.801Z,8.27
2022-09-06T22:05:41.889Z,7.75
2022-09-06T22:08:17.533Z,7.32
2022-09-06T22:10:50.069Z,6.40
2022-09-06T22:13:22.817Z,6.68
2022-09-06T22:16:07.686Z,5.85
2022-09-06T22:18:39.586Z,5.72
2022-09-06T22:21:20.389Z,6.95
2022-09-06T22:24:03.262Z,7.40
2022-09-06T22:30:14.875Z,9.75
2022-09-06T22:33:01.861Z,10.75
2022-09-06T22:35:35.210Z,9.50
2022-09-06T22:38:09.372Z,10.52
2022-09-06T22:40:42.321Z,10.32
2022-09-06T22:43:12.381Z,12.10
2022-09-06T22:45:51.865Z,12.07
2022-09-06T22:48:25.620Z,12.63
2022-09-06T22:51:01.835Z,12.52
2022-09-06T22:53:34.584Z,10.93
2022-09-06T22:56:07.293Z,12.07
2022-09-06T22:58:41.557Z,11.52
2022-09-06T23:01:14.254Z,11.52
2022-09-06T23:04:02.442Z,12.95
2022-09-06T23:06:31.513Z,11.57
2022-09-06T23:09:08.487Z,14.55
2022-09-06T23:11:38.820Z,13.25
2022-09-06T23:14:10.984Z,13.80
2022-09-06T23:16:42.083Z,12.77
2022-09-06T23:19:12.784Z,12.88
2022-09-06T23:21:53.150Z,14.10
2022-09-06T23:24:28.075Z,13.68
2022-09-06T23:27:03.667Z,15.73
2022-09-06T23:29:35.281Z,15.95
2022-09-06T23:32:04.984Z,13.45
2022-09-06T23:34:37.446Z,12.68
2022-09-06T23:37:07.547Z,11.73
2022-09-06T23:39:36.243Z,11.02
2022-09-06T23:42:05.164Z,10.15
2022-09-06T23:44:35.494Z,9.23
2022-09-06T23:47:10.767Z,9.30
2022-09-06T23:49:38.990Z,8.98
2022-09-06T23:52:07.002Z,8.30
2022-09-06T23:54:34.619Z,7.20
2022-09-06T23:57:06.673Z,7.43
2022-09-06T23:59:35.114Z,5.93
